Time;durP1;ratioP1;P1;durP2;ratioP2;P2;SDS_P1;SDS_P2;PMS_P1;PMS_P2;Temp;Humidity;BMP_temperature;BMP_pressure;BME280_temperature;BME280_humidity;BME280_pressure;Samples;Min_cycle;Max_cycle;Signal;HPM_P1;HPM_P2
2022/05/11 00:00:35;;;;;;;6.43;2.00;;;;;;;16.23;90.30;101253.25;4988583;28;20050;-59
2022/05/11 00:03:04;;;;;;;5.10;1.92;;;;;;;16.19;93.56;101260.59;4989650;28;20050;-59
2022/05/11 00:05:33;;;;;;;4.78;2.15;;;;;;;16.26;92.77;101263.59;4989861;28;20038;-59
2022/05/11 00:08:01;;;;;;;7.03;1.98;;;;;;;16.29;92.78;101259.84;4989732;28;20046;-59
2022/05/11 00:10:30;;;;;;;4.78;2.03;;;;;;;16.29;92.98;101239.47;4989545;28;20050;-59
2022/05/11 00:12:58;;;;;;;6.57;2.10;;;;;;;16.22;93.96;101246.25;4989758;28;20050;-60
2022/05/11 00:15:29;;;;;;;4.93;2.30;;;;;;;16.21;92.55;101255.16;4989190;28;20054;-60
2022/05/11 00:17:58;;;;;;;4.30;1.98;;;;;;;16.19;92.64;101233.22;4989380;28;20062;-59
2022/05/11 00:20:26;;;;;;;4.95;2.28;;;;;;;16.17;92.48;101237.81;4989878;28;20046;-60
2022/05/11 00:22:55;;;;;;;4.68;2.47;;;;;;;15.99;93.32;101240.16;4988951;28;20070;-59
2022/05/11 00:25:25;;;;;;;5.03;2.38;;;;;;;15.97;94.93;101242.94;4982834;28;20050;-61
2022/05/11 00:27:53;;;;;;;6.50;2.53;;;;;;;15.96;95.78;101240.44;4988558;28;20050;-60
2022/05/11 00:30:22;;;;;;;4.65;2.38;;;;;;;16.02;94.56;101232.81;4989950;28;20049;-59
2022/05/11 00:32:54;;;;;;;6.88;2.60;;;;;;;16.05;94.34;101237.88;4989945;28;20046;-59
2022/05/11 00:35:22;;;;;;;6.10;2.55;;;;;;;16.10;95.05;101234.00;4990243;28;20487;-60
2022/05/11 00:37:50;;;;;;;4.88;2.40;;;;;;;16.05;95.26;101242.34;4993828;28;20088;-60
2022/05/11 00:40:19;;;;;;;6.07;2.40;;;;;;;16.02;94.17;101224.84;4989655;28;20085;-59
2022/05/11 00:42:48;;;;;;;6.30;2.63;;;;;;;15.91;92.89;101224.91;4988144;28;20058;-60
2022/05/11 00:45:16;;;;;;;6.95;2.65;;;;;;;15.81;93.50;101213.34;4989481;28;20038;-59
2022/05/11 00:47:47;;;;;;;5.82;2.67;;;;;;;15.84;94.47;101213.94;4992318;28;20058;-60
2022/05/11 00:50:19;;;;;;;8.13;2.83;;;;;;;15.84;93.58;101207.78;4989273;28;20061;-60
2022/05/11 00:52:52;;;;;;;6.57;2.83;;;;;;;15.87;94.56;101191.66;4989736;28;20050;-60
2022/05/11 00:55:25;;;;;;;9.43;3.10;;;;;;;15.86;93.09;101184.66;4987975;28;20050;-59
2022/05/11 00:57:56;;;;;;;;;;;;;;;15.80;93.01;101183.34;4992387;28;20058;-60
2022/05/11 01:00:26;;;;;;;7.47;3.00;;;;;;;15.80;93.16;101191.31;4993341;28;19929;-60
2022/05/11 01:03:00;;;;;;;7.88;3.00;;;;;;;15.79;93.34;101191.38;4992723;28;20100;-60
2022/05/11 01:05:30;;;;;;;5.85;3.05;;;;;;;15.72;93.76;101189.25;4989000;28;20066;-60
2022/05/11 01:07:59;;;;;;;6.05;2.78;;;;;;;15.60;93.98;101184.94;4991377;28;20052;-60
2022/05/11 01:10:29;;;;;;;8.07;3.53;;;;;;;15.55;94.79;101184.47;4993081;28;20096;-60
2022/05/11 01:13:01;;;;;;;7.00;3.03;;;;;;;15.56;95.18;101188.81;4989374;28;20112;-59
2022/05/11 01:15:32;;;;;;;6.75;2.95;;;;;;;15.56;94.82;101172.91;4989827;28;20078;-60
2022/05/11 01:18:02;;;;;;;7.55;3.20;;;;;;;15.53;95.15;101171.34;4993000;28;20063;-60
2022/05/11 01:20:35;;;;;;;7.82;3.15;;;;;;;15.49;94.73;101161.94;4990513;28;20042;-60
2022/05/11 01:23:09;;;;;;;7.57;3.53;;;;;;;15.55;95.91;101168.56;4989451;28;20046;-59
2022/05/11 01:25:39;;;;;;;9.35;3.67;;;;;;;15.59;94.58;101166.50;4987468;28;20042;-59
2022/05/11 01:28:11;;;;;;;7.85;3.90;;;;;;;15.57;94.49;101164.00;4989353;28;20061;-60
2022/05/11 01:30:41;;;;;;;8.82;3.70;;;;;;;15.58;95.55;101167.47;4989827;28;20397;-60
2022/05/11 01:33:13;;;;;;;9.60;3.55;;;;;;;15.62;95.35;101169.72;4991362;28;20098;-59
2022/05/11 01:35:48;;;;;;;10.70;3.50;;;;;;;15.65;94.71;101166.84;4991800;28;20050;-60
2022/05/11 01:38:28;;;;;;;5.63;3.25;;;;;;;15.59;93.24;101156.75;4993058;28;20058;-59
2022/05/11 01:40:58;;;;;;;8.30;4.03;;;;;;;15.45;93.67;101157.88;4993270;28;20445;-58
2022/05/11 01:43:28;;;;;;;8.82;3.38;;;;;;;15.45;92.57;101152.56;4996751;28;20433;-60
2022/05/11 01:45:57;;;;;;;8.15;3.47;;;;;;;15.49;92.81;101139.91;4996713;28;20512;-60
2022/05/11 01:48:25;;;;;;;7.93;4.00;;;;;;;15.34;93.28;101145.47;4992925;28;20056;-59
2022/05/11 01:50:54;;;;;;;8.23;3.70;;;;;;;15.38;93.33;101154.03;4992982;28;20050;-59
2022/05/11 01:53:22;;;;;;;5.68;3.28;;;;;;;15.44;93.15;101144.75;4993141;28;20050;-59
2022/05/11 01:55:50;;;;;;;8.13;3.58;;;;;;;15.45;92.16;101146.44;4994262;28;20385;-58
2022/05/11 01:58:21;;;;;;;9.02;3.80;;;;;;;15.40;92.30;101143.31;4993334;28;20509;-59
2022/05/11 02:00:49;;;;;;;10.10;3.88;;;;;;;15.36;91.71;101143.53;4992303;28;20066;-59
2022/05/11 02:03:20;;;;;;;6.95;3.58;;;;;;;15.41;91.75;101137.88;4993018;28;20060;-60
2022/05/11 02:08:34;;;;;;;7.38;3.55;;;;;;;15.43;90.54;101130.63;4993395;28;20453;-59
2022/05/11 02:11:03;;;;;;;8.98;4.15;;;;;;;15.39;91.01;101126.53;4990731;28;20466;-59
2022/05/11 02:13:33;;;;;;;9.48;4.38;;;;;;;15.40;91.78;101132.72;4992133;28;20458;-60
2022/05/11 02:16:01;;;;;;;8.27;4.25;;;;;;;15.45;92.67;101134.00;4992068;28;20054;-59
2022/05/11 02:18:30;;;;;;;8.95;4.03;;;;;;;15.46;91.90;101129.53;4992208;28;20480;-60
2022/05/11 02:20:58;;;;;;;9.50;4.28;;;;;;;15.49;91.38;101131.97;4992407;28;20132;-61
2022/05/11 02:23:26;;;;;;;8.02;3.95;;;;;;;15.47;91.37;101126.75;4992809;28;20105;-53
2022/05/11 02:25:55;;;;;;;10.68;4.32;;;;;;;15.47;90.26;101126.75;4990306;28;20046;-54
2022/05/11 02:28:23;;;;;;;11.95;4.25;;;;;;;15.49;90.18;101124.84;4991932;28;20046;-53
2022/05/11 02:30:56;;;;;;;9.10;3.97;;;;;;;15.46;89.77;101116.28;4992655;28;20046;-53
2022/05/11 02:33:25;;;;;;;10.98;4.18;;;;;;;15.44;89.79;101121.72;4996243;28;20401;-59
2022/05/11 02:35:54;;;;;;;7.75;4.03;;;;;;;15.46;90.82;101125.09;4991258;28;20050;-59
2022/05/11 02:38:24;;;;;;;9.20;4.45;;;;;;;15.44;91.72;101126.19;4992343;28;20126;-59
2022/05/11 02:40:53;;;;;;;8.48;4.10;;;;;;;15.48;91.63;101120.50;4995806;28;20105;-59
2022/05/11 02:43:22;;;;;;;9.32;3.75;;;;;;;15.49;91.37;101126.66;4994385;28;20058;-52
2022/05/11 02:45:50;;;;;;;8.90;4.35;;;;;;;15.46;91.34;101119.81;4990557;28;20096;-52
2022/05/11 02:48:23;;;;;;;7.20;3.97;;;;;;;15.49;91.68;101121.38;4991787;28;20046;-52
2022/05/11 02:50:53;;;;;;;7.32;3.95;;;;;;;15.53;91.38;101113.03;4990689;28;20058;-50
2022/05/11 02:53:22;;;;;;;8.68;4.00;;;;;;;15.54;90.07;101121.81;4991977;28;20509;-54
2022/05/11 02:55:52;;;;;;;9.02;4.60;;;;;;;15.52;91.01;101119.28;4989895;28;20200;-54
2022/05/11 02:58:22;;;;;;;7.53;4.00;;;;;;;15.46;91.37;101119.81;4991769;28;20061;-53
2022/05/11 03:00:52;;;;;;;10.52;4.18;;;;;;;15.49;90.51;101111.59;4992164;28;20456;-54
2022/05/11 03:03:22;;;;;;;7.93;3.92;;;;;;;15.50;90.38;101121.25;4991939;28;20062;-51
2022/05/11 03:05:52;;;;;;;8.20;4.40;;;;;;;15.48;91.23;101122.31;4991756;28;20050;-52
2022/05/11 03:08:21;;;;;;;8.48;4.47;;;;;;;15.44;91.02;101113.78;4995504;28;20160;-52
2022/05/11 03:10:49;;;;;;;9.82;4.97;;;;;;;15.43;90.47;101116.56;4995194;28;20077;-58
2022/05/11 03:13:18;;;;;;;8.45;4.30;;;;;;;15.45;90.29;101111.97;4995173;28;20050;-53
2022/05/11 03:15:46;;;;;;;8.15;4.53;;;;;;;15.40;89.90;101109.69;4995094;28;20050;-59
2022/05/11 03:18:14;;;;;;;9.20;4.10;;;;;;;15.38;90.05;101109.81;4994086;28;20061;-59
2022/05/11 03:20:44;;;;;;;8.18;4.35;;;;;;;15.36;91.03;101101.13;4991357;28;20062;-53
2022/05/11 03:23:12;;;;;;;6.68;3.85;;;;;;;15.30;90.16;101101.66;4991972;28;20054;-53
2022/05/11 03:25:40;;;;;;;7.55;3.95;;;;;;;15.19;89.84;101089.28;4989892;28;20057;-50
2022/05/11 03:28:08;;;;;;;9.95;4.32;;;;;;;15.24;89.95;101078.28;4991387;28;20058;-59
2022/05/11 03:30:36;;;;;;;7.47;4.10;;;;;;;15.26;89.25;101079.03;4991372;28;20510;-51
2022/05/11 03:35:51;;;;;;;8.88;4.32;;;;;;;15.22;90.25;101080.25;4992785;28;20251;-53
2022/05/11 03:38:19;;;;;;;9.68;3.72;;;;;;;15.22;90.76;101080.25;4994944;28;20076;-59
2022/05/11 03:40:47;;;;;;;8.63;4.50;;;;;;;15.25;90.92;101082.63;4994661;28;20485;-54
2022/05/11 03:43:16;;;;;;;8.55;4.15;;;;;;;15.26;88.36;101071.06;4994816;28;20692;-51
2022/05/11 03:45:45;;;;;;;8.55;4.05;;;;;;;15.23;89.24;101076.63;4994466;28;20533;-60
2022/05/11 03:48:16;;;;;;;7.25;4.10;;;;;;;15.24;90.96;101074.81;4992769;28;20062;-60
2022/05/11 03:50:44;;;;;;;11.00;4.00;;;;;;;15.19;91.06;101073.38;4990462;28;20050;-60
2022/05/11 03:53:14;;;;;;;7.63;3.85;;;;;;;15.21;90.83;101075.91;4994093;28;20101;-60
2022/05/11 03:55:42;;;;;;;7.72;3.92;;;;;;;15.19;90.48;101075.19;4989400;28;20049;-60
2022/05/11 03:58:13;;;;;;;8.65;3.67;;;;;;;15.19;90.50;101069.91;4990528;28;20489;-60
2022/05/11 04:00:41;;;;;;;7.20;3.78;;;;;;;15.18;90.44;101069.03;4990584;28;20468;-60
2022/05/11 04:03:09;;;;;;;9.35;3.90;;;;;;;15.18;88.08;101062.91;4993401;28;20038;-53
2022/05/11 04:05:38;;;;;;;7.28;3.60;;;;;;;15.18;88.77;101066.38;4994079;28;20066;-54
2022/05/11 04:08:06;;;;;;;8.80;3.60;;;;;;;15.17;89.42;101058.56;4993861;28;20056;-54
2022/05/11 04:10:36;;;;;;;7.32;3.40;;;;;;;15.16;88.32;101062.19;4988776;28;20104;-52
2022/05/11 04:13:05;;;;;;;6.97;3.63;;;;;;;15.19;88.51;101052.19;4991561;28;20510;-51
2022/05/11 04:15:33;;;;;;;6.65;3.50;;;;;;;15.19;89.33;101061.94;4991379;28;20051;-54
2022/05/11 04:18:01;;;;;;;5.93;3.28;;;;;;;15.20;88.43;101048.56;4989843;28;20164;-53
2022/05/11 04:20:29;;;;;;;8.07;3.28;;;;;;;15.19;88.65;101054.84;4988580;28;20059;-60
2022/05/11 04:22:57;;;;;;;8.43;3.42;;;;;;;15.20;86.66;101055.66;4990488;28;20129;-59
2022/05/11 04:25:25;;;;;;;7.70;3.30;;;;;;;15.23;87.06;101049.28;4988073;28;20070;-60
2022/05/11 04:27:55;;;;;;;6.95;3.20;;;;;;;15.24;86.83;101057.09;4992195;28;20105;-59
2022/05/11 04:30:26;;;;;;;7.15;3.00;;;;;;;15.24;86.99;101043.84;4991165;28;20069;-59
2022/05/11 04:32:55;;;;;;;7.05;2.60;;;;;;;15.25;86.93;101045.53;4989877;28;20497;-60
2022/05/11 04:35:23;;;;;;;6.85;2.60;;;;;;;15.30;85.98;101043.34;4989677;28;20042;-61
2022/05/11 04:37:51;;;;;;;7.30;2.65;;;;;;;15.30;86.82;101051.31;4991441;28;20136;-55
2022/05/11 04:40:19;;;;;;;6.68;3.00;;;;;;;15.31;86.79;101049.50;4993769;28;20042;-52
2022/05/11 04:42:47;;;;;;;6.15;2.72;;;;;;;15.32;85.99;101051.19;4991024;28;20042;-59
2022/05/11 04:45:17;;;;;;;5.65;2.92;;;;;;;15.29;86.05;101059.38;4989701;28;20150;-58
2022/05/11 04:47:46;;;;;;;8.40;2.40;;;;;;;15.33;84.33;101060.81;4989922;28;20128;-58
2022/05/11 04:50:16;;;;;;;8.20;2.80;;;;;;;15.32;83.53;101054.66;4989588;28;20049;-59
2022/05/11 04:52:46;;;;;;;6.05;3.03;;;;;;;15.38;84.24;101054.16;4989756;28;20050;-59
2022/05/11 04:55:15;;;;;;;6.80;2.90;;;;;;;15.42;83.82;101049.47;4988254;28;20101;-52
2022/05/11 04:57:43;;;;;;;5.05;2.75;;;;;;;15.42;83.08;101051.25;4992223;28;20065;-53
2022/05/11 05:00:12;;;;;;;5.63;2.40;;;;;;;15.40;81.98;101056.69;4993097;28;20549;-53
2022/05/11 05:02:42;;;;;;;6.25;2.38;;;;;;;15.46;82.31;101056.19;4989648;28;20132;-54
2022/05/11 05:05:12;;;;;;;6.30;2.58;;;;;;;15.48;81.78;101062.19;4989374;28;20498;-53
2022/05/11 05:07:41;;;;;;;6.80;2.40;;;;;;;15.52;82.82;101053.03;4989738;28;20502;-56
2022/05/11 05:10:12;;;;;;;4.97;2.42;;;;;;;15.47;82.23;101060.50;4987862;28;20054;-59
2022/05/11 05:12:41;;;;;;;6.13;2.60;;;;;;;15.53;81.60;101056.53;4989351;28;20058;-52
2022/05/11 05:15:11;;;;;;;7.43;2.72;;;;;;;15.53;82.14;101067.13;4990070;28;20528;-54
2022/05/11 05:17:39;;;;;;;6.35;2.50;;;;;;;15.55;82.80;101066.00;4989418;28;20070;-58
2022/05/11 05:20:11;;;;;;;5.47;2.85;;;;;;;15.58;82.24;101059.63;4988987;28;20445;-59
2022/05/11 05:22:40;;;;;;;7.43;2.67;;;;;;;15.59;81.93;101063.13;4989663;28;20053;-59
2022/05/11 05:25:09;;;;;;;7.13;2.92;;;;;;;15.62;82.16;101065.53;4992030;28;20540;-53
2022/05/11 05:27:38;;;;;;;7.68;2.50;;;;;;;15.67;81.19;101066.81;4989228;28;20121;-59
2022/05/11 05:32:53;;;;;;;7.28;2.65;;;;;;;15.79;82.16;101072.91;4993172;28;20057;-58
2022/05/11 05:35:23;;;;;;;9.32;2.97;;;;;;;15.75;80.03;101070.63;4992753;28;20046;-57
2022/05/11 05:37:51;;;;;;;6.18;2.40;;;;;;;15.76;80.49;101067.88;4988812;28;20116;-59
2022/05/11 05:40:19;;;;;;;6.90;2.80;;;;;;;15.81;81.38;101075.47;4988253;28;20062;-59
2022/05/11 05:42:48;;;;;;;6.82;2.55;;;;;;;15.87;80.67;101072.31;4990377;28;20050;-56
2022/05/11 05:45:16;;;;;;;7.00;3.03;;;;;;;15.93;81.27;101074.44;4990121;28;20053;-55
2022/05/11 05:47:44;;;;;;;6.53;2.90;;;;;;;15.94;80.61;101077.91;4988589;28;20520;-56
2022/05/11 05:50:13;;;;;;;5.03;2.53;;;;;;;15.97;81.97;101073.19;4992173;28;20067;-53
2022/05/11 05:52:42;;;;;;;6.47;2.80;;;;;;;16.04;81.59;101074.34;4991226;28;20057;-56
2022/05/11 05:55:10;;;;;;;8.32;2.83;;;;;;;16.10;80.82;101070.38;4987661;28;20050;-55
2022/05/11 05:57:39;;;;;;;6.85;3.05;;;;;;;16.12;80.73;101063.09;4990925;28;20038;-56
2022/05/11 06:00:08;;;;;;;4.85;2.80;;;;;;;16.08;79.37;101064.34;4992442;28;20050;-54
2022/05/11 06:02:38;;;;;;;6.18;2.60;;;;;;;16.04;79.60;101066.41;4992047;28;20130;-54
2022/05/11 06:05:06;;;;;;;7.53;3.03;;;;;;;16.10;78.77;101064.19;4991370;28;20050;-54
2022/05/11 06:07:35;;;;;;;6.20;2.65;;;;;;;16.13;78.71;101066.59;4988535;28;20498;-54
2022/05/11 06:10:05;;;;;;;6.20;2.60;;;;;;;16.19;78.54;101074.88;4986729;28;20108;-52
2022/05/11 06:12:34;;;;;;;6.88;2.90;;;;;;;16.20;77.29;101071.25;4988618;28;20062;-54
2022/05/11 06:15:02;;;;;;;6.13;3.10;;;;;;;16.29;77.83;101071.44;4988236;28;20055;-55
2022/05/11 06:17:32;;;;;;;6.55;2.90;;;;;;;16.39;80.00;101067.84;4988700;28;20089;-53
2022/05/11 06:20:00;;;;;;;4.68;2.42;;;;;;;16.45;77.21;101068.31;4989670;28;20050;-54
2022/05/11 06:22:28;;;;;;;6.13;2.80;;;;;;;16.51;76.64;101067.75;4993826;28;20050;-53
2022/05/11 06:24:56;;;;;;;7.00;2.70;;;;;;;16.66;75.99;101071.75;4990852;28;20702;-59
2022/05/11 06:27:26;;;;;;;8.55;3.00;;;;;;;16.77;75.01;101067.28;4991926;28;20061;-53
2022/05/11 06:29:56;;;;;;;5.30;2.67;;;;;;;16.88;74.44;101069.88;4992262;28;20046;-53
2022/05/11 06:32:25;;;;;;;8.32;2.83;;;;;;;16.98;72.53;101062.78;4992546;28;20081;-58
2022/05/11 06:34:54;;;;;;;5.75;2.47;;;;;;;17.10;72.02;101060.00;4991860;28;20552;-58
2022/05/11 06:37:24;;;;;;;5.90;2.50;;;;;;;17.20;72.70;101066.16;4992235;28;20113;-58
2022/05/11 06:39:53;;;;;;;4.82;2.45;;;;;;;17.31;70.96;101066.03;4994974;28;20709;-54
2022/05/11 06:42:22;;;;;;;6.93;2.15;;;;;;;17.45;70.27;101062.16;4992024;28;20112;-59
2022/05/11 06:44:52;;;;;;;6.28;2.33;;;;;;;17.61;68.68;101063.41;4990764;28;20055;-58
2022/05/11 06:47:20;;;;;;;7.00;2.20;;;;;;;17.71;65.83;101051.78;4993752;28;20492;-59
2022/05/11 06:49:48;;;;;;;4.93;2.33;;;;;;;17.71;64.15;101057.09;4996083;28;20050;-59
2022/05/11 06:52:17;;;;;;;8.38;2.20;;;;;;;17.75;65.13;101057.63;4995780;28;20054;-59
2022/05/11 07:00:20;;;;;;;4.63;2.03;;;;;;;18.23;63.05;101045.25;4991769;28;20058;-54
2022/05/11 07:02:48;;;;;;;6.03;2.25;;;;;;;18.34;62.80;101045.06;4991800;28;20054;-59
2022/05/11 07:05:17;;;;;;;8.65;2.42;;;;;;;18.47;61.52;101047.38;4991415;28;20050;-55
2022/05/11 07:07:45;;;;;;;6.00;1.88;;;;;;;18.60;61.09;101052.41;4991536;28;20046;-59
2022/05/11 07:10:13;;;;;;;4.60;2.03;;;;;;;18.63;59.89;101052.09;4993013;28;20405;-58
2022/05/11 07:12:46;;;;;;;9.05;2.35;;;;;;;18.61;59.89;101053.22;4992591;28;20100;-58
2022/05/11 07:15:16;;;;;;;7.78;2.10;;;;;;;18.76;61.20;101051.75;4991606;28;20467;-58
2022/05/11 07:17:55;;;;;;;6.95;2.40;;;;;;;18.96;59.07;101049.84;4991004;28;20097;-58
2022/05/11 07:20:26;;;;;;;5.88;1.98;;;;;;;19.13;58.44;101042.00;4991163;28;20108;-59
2022/05/11 07:22:55;;;;;;;6.03;1.80;;;;;;;19.33;58.89;101042.69;4992024;28;20497;-58
2022/05/11 07:25:25;;;;;;;6.50;1.80;;;;;;;19.51;56.56;101046.22;4993767;28;20584;-58
2022/05/11 07:27:54;;;;;;;8.70;1.73;;;;;;;19.59;55.52;101048.94;4991988;28;20055;-58
2022/05/11 07:30:26;;;;;;;7.93;2.03;;;;;;;19.72;55.24;101048.53;4992021;28;20050;-56
2022/05/11 07:33:03;;;;;;;5.10;1.63;;;;;;;19.89;54.07;101044.19;4994253;28;20509;-53
2022/05/11 07:35:32;;;;;;;4.40;1.40;;;;;;;19.88;52.62;101045.19;4994814;28;20457;-55
2022/05/11 07:38:00;;;;;;;6.85;2.17;;;;;;;19.81;52.34;101049.47;4991602;28;20097;-54
2022/05/11 07:40:28;;;;;;;5.82;1.55;;;;;;;19.81;53.28;101043.28;4989426;28;20038;-59
2022/05/11 07:42:57;;;;;;;6.80;1.60;;;;;;;19.95;53.73;101053.41;4993833;28;20058;-53
2022/05/11 07:45:25;;;;;;;5.45;1.35;;;;;;;20.01;52.10;101050.09;4991039;28;20405;-55
2022/05/11 07:47:53;;;;;;;7.05;1.85;;;;;;;20.15;54.28;101048.72;4991167;28;20108;-54
2022/05/11 07:50:22;;;;;;;7.60;1.83;;;;;;;20.09;52.35;101043.97;4990479;28;20050;-55
2022/05/11 07:52:52;;;;;;;4.47;1.33;;;;;;;20.13;52.29;101047.19;4993493;28;20580;-55
2022/05/11 07:55:24;;;;;;;6.95;1.60;;;;;;;20.12;52.10;101054.34;4993673;28;20095;-55
2022/05/11 08:00:38;;;;;;;5.68;1.52;;;;;;;20.17;49.97;101054.72;4990602;28;20046;-54
2022/05/11 08:03:08;;;;;;;4.50;1.13;;;;;;;20.15;49.67;101055.88;4991074;28;20513;-55
2022/05/11 08:05:38;;;;;;;7.43;1.17;;;;;;;20.39;48.91;101049.81;4988724;28;20058;-53
2022/05/11 08:08:08;;;;;;;4.55;1.10;;;;;;;20.38;48.75;101054.34;4990758;28;20053;-53
2022/05/11 08:10:39;;;;;;;7.10;1.30;;;;;;;20.48;49.00;101061.38;4989157;28;20379;-54
2022/05/11 08:13:09;;;;;;;7.75;1.10;;;;;;;20.30;47.73;101053.44;4990384;28;20038;-54
2022/05/11 08:15:43;;;;;;;6.85;1.20;;;;;;;20.60;47.48;101068.09;4989888;28;20042;-55
2022/05/11 08:18:12;;;;;;;6.20;1.15;;;;;;;20.73;46.82;101062.34;4990136;28;20050;-56
2022/05/11 08:20:46;;;;;;;5.05;1.10;;;;;;;20.65;46.41;101062.28;4989929;28;20050;-57
2022/05/11 08:23:15;;;;;;;5.78;1.38;;;;;;;20.97;46.33;101053.59;4990436;28;20430;-56
2022/05/11 08:25:46;;;;;;;4.93;1.10;;;;;;;21.11;45.40;101054.78;4988234;28;20434;-57
2022/05/11 08:28:16;;;;;;;7.38;1.42;;;;;;;21.16;45.40;101056.94;4989614;28;20109;-57
2022/05/11 08:33:34;;;;;;;3.38;0.90;;;;;;;21.44;45.84;101052.16;4991356;28;20058;-55
2022/05/11 08:36:25;;;;;;;5.60;1.20;;;;;;;21.63;44.92;101048.34;4993541;28;20054;-57
2022/05/11 08:38:55;;;;;;;4.65;1.05;;;;;;;21.70;45.57;101053.84;4992789;28;20046;-54
2022/05/11 08:41:32;;;;;;;4.50;0.82;;;;;;;21.80;45.44;101038.47;4987803;28;20109;-56
2022/05/11 08:44:03;;;;;;;4.43;1.10;;;;;;;21.83;45.42;101039.94;4987806;28;20129;-59
2022/05/11 08:46:47;;;;;;;6.10;1.50;;;;;;;21.67;44.45;101043.50;4990635;28;20056;-54
2022/05/11 08:49:30;;;;;;;4.70;1.08;;;;;;;21.69;44.53;101052.19;4988631;28;20069;-59
2022/05/11 08:52:01;;;;;;;;;;;;;;;21.90;44.36;101055.16;4989659;28;20536;-56
2022/05/11 08:54:42;;;;;;;6.82;1.40;;;;;;;22.08;44.53;101052.28;4991011;28;20015;-56
2022/05/11 08:57:15;;;;;;;6.78;1.20;;;;;;;22.11;44.27;101051.09;4988780;28;20056;-55
2022/05/11 08:59:43;;;;;;;7.55;1.38;;;;;;;22.38;44.74;101055.25;4991798;28;20046;-54
2022/05/11 09:02:19;;;;;;;5.05;1.50;;;;;;;22.60;43.54;101055.50;4988850;28;20457;-55
2022/05/11 09:04:50;;;;;;;8.00;1.48;;;;;;;22.61;42.83;101055.31;4990309;28;20084;-55
2022/05/11 09:07:20;;;;;;;5.40;1.40;;;;;;;22.63;42.78;101052.47;4993013;28;20053;-52
2022/05/11 09:09:51;;;;;;;4.25;1.25;;;;;;;22.96;42.90;101053.16;4986303;28;20050;-53
2022/05/11 09:12:20;;;;;;;6.05;1.25;;;;;;;22.96;42.90;101044.28;4988708;28;20054;-54
2022/05/11 09:14:54;;;;;;;4.53;1.20;;;;;;;23.38;42.88;101043.03;4993125;28;20119;-55
2022/05/11 09:17:26;;;;;;;5.55;1.33;;;;;;;23.65;43.32;101038.09;4990395;28;20057;-54
2022/05/11 09:20:04;;;;;;;5.32;1.63;;;;;;;23.63;41.58;101032.06;4987164;28;20572;-53
2022/05/11 09:22:37;;;;;;;7.38;1.65;;;;;;;23.39;42.50;101033.94;4988022;28;20565;-53
2022/05/11 09:25:17;;;;;;;6.38;1.92;;;;;;;23.54;41.69;101033.16;4989898;28;20060;-54
2022/05/11 09:27:45;;;;;;;7.40;1.50;;;;;;;23.85;41.52;101040.28;4986942;28;20050;-54
2022/05/11 09:30:19;;;;;;;6.10;1.58;;;;;;;23.98;41.91;101028.91;4990457;28;20077;-53
2022/05/11 09:32:53;;;;;;;9.57;1.60;;;;;;;24.08;41.11;101024.94;4987940;28;20058;-54
2022/05/11 09:35:33;;;;;;;9.07;1.90;;;;;;;24.06;40.99;101018.91;4987502;28;20142;-54
2022/05/11 09:38:32;;;;;;;7.55;2.13;;;;;;;24.25;40.38;101019.38;4988356;28;20481;-52
2022/05/11 09:41:02;;;;;;;7.20;1.80;;;;;;;24.65;41.39;101017.25;4986479;28;20568;-53
2022/05/11 09:43:34;;;;;;;6.47;1.80;;;;;;;24.73;41.14;101018.97;4987159;28;20050;-51
2022/05/11 09:46:17;;;;;;;7.88;1.73;;;;;;;24.57;39.38;101019.97;4987962;28;20062;-54
2022/05/11 09:48:59;;;;;;;6.07;1.63;;;;;;;25.00;39.89;101017.41;4987743;28;20053;-54
2022/05/11 09:51:34;;;;;;;10.27;1.90;;;;;;;24.92;39.54;101009.44;4987759;28;20058;-54
2022/05/11 09:54:17;;;;;;;6.50;1.63;;;;;;;25.25;38.63;101017.00;4987961;28;20495;-54
2022/05/11 09:56:59;;;;;;;5.63;1.70;;;;;;;25.27;39.28;101020.34;4989186;28;20480;-55
2022/05/11 09:59:30;;;;;;;8.10;1.98;;;;;;;25.26;38.72;101022.19;4992268;28;20106;-55
2022/05/11 10:02:15;;;;;;;6.75;1.77;;;;;;;25.47;40.15;101018.69;4995373;28;20509;-55
2022/05/11 10:04:48;;;;;;;6.60;1.52;;;;;;;25.76;37.89;101011.44;4996747;28;20509;-55
2022/05/11 10:07:19;;;;;;;;;;;;;;;25.71;38.25;101013.06;4997104;28;20129;-56
2022/05/11 10:09:53;;;;;;;6.97;2.28;;;;;;;25.83;37.65;101008.81;4996382;28;19932;-55
2022/05/11 10:12:27;;;;;;;7.63;1.73;;;;;;;25.98;37.27;101014.91;4995792;28;20046;-55
2022/05/11 10:23:46;;;;;;;8.07;1.90;;;;;;;25.84;37.56;101004.25;4992806;28;20051;-56
2022/05/11 10:26:24;;;;;;;5.40;1.95;;;;;;;25.80;36.72;101007.34;4993362;28;20054;-59
2022/05/11 10:28:58;;;;;;;7.32;2.00;;;;;;;25.81;37.80;101000.09;4991198;28;20486;-59
2022/05/11 10:31:34;;;;;;;6.95;1.98;;;;;;;26.07;38.29;101001.31;4995624;28;20105;-58
2022/05/11 10:34:12;;;;;;;9.95;2.13;;;;;;;26.28;36.90;100997.69;4994266;28;20073;-57
2022/05/11 10:36:49;;;;;;;5.88;1.75;;;;;;;26.35;38.09;100985.06;4991485;28;20101;-58
2022/05/11 10:39:33;;;;;;;6.47;1.95;;;;;;;26.68;38.10;100994.31;4991168;28;20441;-55
2022/05/11 10:42:10;;;;;;;4.50;1.80;;;;;;;26.63;35.71;100984.97;4989896;28;20062;-54
2022/05/11 10:45:02;;;;;;;6.88;1.88;;;;;;;26.71;36.45;100985.84;4990790;28;20085;-55
2022/05/11 10:47:48;;;;;;;8.20;2.08;;;;;;;26.64;36.24;100972.31;4994170;28;20043;-56
2022/05/11 10:50:23;;;;;;;7.47;2.28;;;;;;;26.46;35.31;100981.81;4994705;28;20390;-54
2022/05/11 10:53:10;;;;;;;6.60;1.77;;;;;;;26.78;35.32;100975.91;4990696;28;20050;-56
2022/05/11 10:55:50;;;;;;;6.13;1.88;;;;;;;26.42;35.48;100979.72;4989407;28;20228;-55
2022/05/11 10:58:42;;;;;;;5.63;1.98;;;;;;;26.66;35.06;100976.47;4993969;28;20375;-56
2022/05/11 11:01:12;;;;;;;;;;;;;;;26.65;34.54;100973.97;4991275;28;20054;-55
2022/05/11 11:04:14;;;;;;;6.55;2.50;;;;;;;26.97;34.77;100982.38;4990718;28;19926;-58
2022/05/11 11:07:15;;;;;;;8.13;1.65;;;;;;;27.42;34.35;100979.09;4989671;28;20513;-59
2022/05/11 11:10:13;;;;;;;6.15;1.60;;;;;;;27.76;34.25;100978.03;4989407;28;20575;-59
2022/05/11 11:12:58;;;;;;;7.15;2.00;;;;;;;27.74;32.57;100972.00;4990113;28;20054;-58
2022/05/11 11:15:31;;;;;;;5.57;1.70;;;;;;;27.63;33.08;100962.66;4991544;28;20428;-60
2022/05/11 11:18:03;;;;;;;4.43;1.40;;;;;;;27.33;31.41;100976.56;4994912;28;20058;-58
2022/05/11 11:20:35;;;;;;;8.02;1.70;;;;;;;27.33;31.49;100967.66;4994927;28;20502;-59
2022/05/11 11:23:12;;;;;;;6.82;1.70;;;;;;;27.31;33.63;100965.16;4995173;28;20035;-58
2022/05/11 11:25:47;;;;;;;6.90;1.90;;;;;;;27.53;32.11;100958.72;4988734;28;20054;-58
2022/05/11 11:28:17;;;;;;;6.10;1.50;;;;;;;27.89;31.56;100960.94;4990256;28;20046;-59
2022/05/11 11:31:17;;;;;;;7.10;1.48;;;;;;;28.39;31.20;100965.78;4990329;28;20053;-58
2022/05/11 11:34:12;;;;;;;4.22;1.30;;;;;;;28.24;29.68;100957.13;4994036;28;20693;-58
2022/05/11 11:36:41;;;;;;;3.90;1.30;;;;;;;28.01;30.05;100953.03;4993406;28;20120;-59
2022/05/11 11:39:14;;;;;;;8.20;1.63;;;;;;;28.11;31.53;100950.69;4990295;28;20097;-58
2022/05/11 11:41:56;;;;;;;;;;;;;;;28.52;30.17;100953.25;4989010;28;20699;-58
2022/05/11 11:44:30;;;;;;;6.85;1.48;;;;;;;28.57;30.35;100950.72;4988863;28;19930;-59
2022/05/11 11:47:00;;;;;;;5.13;1.40;;;;;;;28.74;30.00;100943.78;4990003;28;20050;-59
2022/05/11 11:49:41;;;;;;;6.07;1.48;;;;;;;28.76;30.54;100947.09;4989781;28;20828;-58
2022/05/11 11:52:35;;;;;;;7.40;1.75;;;;;;;29.00;29.84;100941.91;4993448;28;20046;-59
2022/05/11 11:55:08;;;;;;;15.30;2.70;;;;;;;29.12;30.98;100933.91;4988683;28;20042;-58
2022/05/11 11:57:36;;;;;;;9.20;2.05;;;;;;;29.04;28.97;100943.16;4988505;28;20042;-57
2022/05/11 12:00:26;;;;;;;6.93;1.50;;;;;;;29.38;29.39;100940.97;4991949;28;20461;-59
2022/05/11 12:02:56;;;;;;;6.00;1.52;;;;;;;29.39;29.92;100936.41;4994267;28;20541;-58
2022/05/11 12:05:27;;;;;;;7.05;2.13;;;;;;;29.37;28.73;100933.94;4993563;28;20560;-59
2022/05/11 12:16:44;;;;;;;7.25;1.83;;;;;;;29.37;28.92;100919.53;4989384;28;20054;-58
2022/05/11 12:19:14;;;;;;;7.28;1.77;;;;;;;29.53;28.79;100931.69;4988562;28;20066;-59
2022/05/11 12:21:53;;;;;;;7.53;2.10;;;;;;;29.75;28.82;100923.94;4988846;28;20101;-59
2022/05/11 12:24:27;;;;;;;11.25;2.05;;;;;;;29.73;28.93;100918.75;4990635;28;20051;-59